02:18
Airports
Links
Donate
Help keep this website running!
PayPal
Bitcoin
METAR
LFPG 110200Z 09007KT 6000 -RA BKN006 BKN015 BKN033 07/06 Q0979 TEMPO 2000 -RADZ BKN003
Current Weather Conditions at LFPG
IFR 02:00:00 11-12-17
Altimeter:28.91 hg
Temp:7.0°c 45°f
Dew point:6.0°c 43°f
Wind:7 knots, 8.1 mph, 4 m/s, from 90°
Visibility:3.73 statute miles
3300(BKN) Broken
1500(BKN) Broken
600(BKN) Broken
Past METAR reports
VFR 01:30:00 11-12-17
Altimeter:28.94 hg
Temp:7.0°c 45°f
Dew point:6.0°c 43°f
Wind:7 knots, 8.1 mph, 4 m/s, from 120°
Visibility:5.59 statute miles
3300(BKN) Broken
2600(SCT) Scattered
1000(FEW) A few
LFPG 110130Z 12007KT 9000 -RA FEW010 SCT026 BKN033 07/06 Q0980 BECMG BKN006
VFR 01:00:00 11-12-17
Altimeter:28.94 hg
Temp:7.0°c 45°f
Dew point:6.0°c 43°f
Wind:7 knots, 8.1 mph, 4 m/s, from 120°
Visibility:5.59 statute miles
4600(BKN) Broken
1900(SCT) Scattered
1000(SCT) Scattered
LFPG 110100Z 12007KT 9000 -RA SCT010 SCT019 BKN046 07/06 Q0980 BECMG BKN006
VFR 00:30:00 11-12-17
Altimeter:28.97 hg
Temp:7.0°c 45°f
Dew point:6.0°c 43°f
Wind:7 knots, 8.1 mph, 4 m/s, from 150°
Visibility:6.21 statute miles
8000(BKN) Broken
2000(SCT) Scattered
1000(SCT) Scattered
LFPG 110030Z 15007KT 9999 SCT010 SCT020 BKN080 07/06 Q0981 BECMG BKN006
VFR 00:00:00 11-12-17
Altimeter:28.97 hg
Temp:7.0°c 45°f
Dew point:6.0°c 43°f
Wind:6 knots, 6.9 mph, 3 m/s, from 150°
Visibility:6.21 statute miles
8600(BKN) Broken
1900(SCT) Scattered
1100(FEW) A few
LFPG 110000Z 15006KT 060V170 9999 FEW011 SCT019 BKN086 07/06 Q0981 BECMG BKN006
VFR 23:30:00 10-12-17
Altimeter:29.00 hg
Temp:7.0°c 45°f
Dew point:6.0°c 43°f
Wind:5 knots, 5.8 mph, 3 m/s, from 180°
Visibility:6.21 statute miles
10000(BKN) Broken
1200(FEW) A few
No significant weather changes expected within 2 hours.
LFPG 102330Z 18005KT 9999 FEW012 BKN100 07/06 Q0982 NOSIG
VFR 23:00:00 10-12-17
Altimeter:29.03 hg
Temp:7.0°c 45°f
Dew point:6.0°c 43°f
Wind:7 knots, 8.1 mph, 4 m/s, from 180°
Visibility:6.21 statute miles
13000(BKN) Broken
2300(SCT) Scattered
No significant weather changes expected within 2 hours.
LFPG 102300Z 18007KT 9999 SCT023 BKN130 07/06 Q0983 NOSIG
TAF
TAF AMD LFPG 102339Z 1100/1206 12010KT 9999 SCT015 BKN090 BECMG 1100/1102 BKN006 PROB40 TEMPO 1100/1102 2000 -RADZ BR BKN003 TEMPO 1103/1109 2500 RA BKN003 BECMG 1109/1112 19020G35KT BKN013 PROB40 TEMPO 1113/1124 BKN007 PROB30 TEMPO 1113/1117 4000 RA BECMG 1115/1117 30020G35KT PROB40 TEMPO 1118/1124 2000 -SHSNRA BECMG 1119/1121 34015G25KT BECMG 1122/1124 30012KT BECMG 1203/1206 SCT020 TX08/1112Z TN01/1206Z
Forecast at LFPG
TEMPO 00:00 11-12-17 to 02:00 11-12-17
40% -RA -DZ BR
Visibility:1.24 statute miles
300BKN Broken
BECMG 00:00 11-12-17 to 09:00 11-12-17
Wind:10 Knots from 120°
Visibility:6.21 statute miles
600BKN Broken
00:00 11-12-17 to 06:00 12-12-17
Wind:10 Knots from 120°
Visibility:6.21 statute miles
1500SCT Scattered
9000BKN Broken
TEMPO 03:00 11-12-17 to 09:00 11-12-17
RA
Visibility:1.55 statute miles
300BKN Broken
BECMG 09:00 11-12-17 to 15:00 11-12-17
Wind:20 Knots from 190°
Visibility:6.21 statute miles
1300BKN Broken
TEMPO 13:00 11-12-17 to 17:00 11-12-17
30% RA
Visibility:2.49 statute miles
TEMPO 13:00 11-12-17 to 00:00 12-12-17
40%
700BKN Broken
BECMG 15:00 11-12-17 to 19:00 11-12-17
Wind:20 Knots from 300°
Visibility:6.21 statute miles
1300BKN Broken
TEMPO 18:00 11-12-17 to 00:00 12-12-17
40% -SHSN -SHRA
Visibility:1.24 statute miles
BECMG 19:00 11-12-17 to 22:00 11-12-17
Wind:15 Knots from 340°
Visibility:6.21 statute miles
1300BKN Broken
BECMG 22:00 11-12-17 to 03:00 12-12-17
Wind:12 Knots from 300°
Visibility:6.21 statute miles
1300BKN Broken
BECMG 03:00 12-12-17 to 06:00 12-12-17
Wind:12 Knots from 300°
Visibility:6.21 statute miles
2000SCT Scattered